Time,TemperatureF,DewpointF,PressureIn,WindDirection,WindDirectionDegrees,WindSpeedMPH,WindSpeedGustMPH,Humidity,HourlyPrecipIn,Conditions,Clouds,dailyrainin,SoftwareType,DateUTC
2013-02-19 00:01:00,27.0,15.0,-100.00,SE,145,16.0,16.0,61,-99.99,,,0.00,,2013-02-19 07:01:00,
2013-02-19 00:52:00,25.0,14.0,-100.00,SSE,150,14.0,15.0,63,-99.99,,,0.00,,2013-02-19 07:52:00,
2013-02-19 01:01:00,25.0,14.0,-100.00,SSE,150,14.0,15.0,63,-99.99,,,0.00,,2013-02-19 08:01:00,
2013-02-19 01:11:00,25.0,14.0,-100.00,SSE,150,14.0,15.0,63,-99.99,,,0.00,,2013-02-19 08:11:00,
2013-02-19 01:21:00,25.0,14.0,-100.00,SSE,150,14.0,15.0,63,-99.99,,,0.00,,2013-02-19 08:21:00,
2013-02-19 01:52:00,25.0,14.0,-100.00,SSE,155,12.0,14.0,63,-99.99,,,0.00,,2013-02-19 08:52:00,
2013-02-19 02:01:00,25.0,14.0,-100.00,SSE,155,12.0,14.0,63,-99.99,,,0.00,,2013-02-19 09:01:00,
2013-02-19 02:11:00,25.0,14.0,-100.00,SSE,155,12.0,14.0,63,-99.99,,,0.00,,2013-02-19 09:11:00,
2013-02-19 02:21:00,25.0,14.0,-100.00,SSE,155,12.0,14.0,63,-99.99,,,0.00,,2013-02-19 09:21:00,
2013-02-19 02:53:00,26.0,14.0,-100.00,SSE,165,18.0,20.0,60,-99.99,,,0.00,,2013-02-19 09:53:00,
2013-02-19 03:01:00,26.0,14.0,-100.00,SSE,165,18.0,20.0,60,-99.99,,,0.00,,2013-02-19 10:01:00,
2013-02-19 03:11:00,26.0,14.0,-100.00,SSE,165,18.0,20.0,60,-99.99,,,0.00,,2013-02-19 10:11:00,
2013-02-19 03:21:00,26.0,14.0,-100.00,SSE,165,18.0,20.0,60,-99.99,,,0.00,,2013-02-19 10:21:00,
2013-02-19 03:52:00,28.0,13.0,-100.00,South,185,12.0,14.0,52,-99.99,,,0.00,,2013-02-19 10:52:00,
2013-02-19 04:01:00,28.0,13.0,-100.00,South,185,12.0,14.0,52,-99.99,,,0.00,,2013-02-19 11:01:00,
2013-02-19 04:52:00,26.0,14.0,-100.00,SE,130,6.0,7.0,60,-99.99,,,0.00,,2013-02-19 11:52:00,
2013-02-19 05:01:00,26.0,14.0,-100.00,SE,130,6.0,7.0,60,-99.99,,,0.00,,2013-02-19 12:01:00,
2013-02-19 05:12:00,26.0,14.0,-100.00,SE,130,6.0,7.0,60,-99.99,,,0.00,,2013-02-19 12:12:00,
2013-02-19 05:21:00,26.0,14.0,-100.00,SE,130,6.0,7.0,60,-99.99,,,0.00,,2013-02-19 12:21:00,
2013-02-19 05:52:00,26.0,13.0,-100.00,SE,130,10.0,11.0,58,-99.99,,,0.00,,2013-02-19 12:52:00,
2013-02-19 06:02:00,26.0,13.0,-100.00,SE,130,10.0,11.0,58,-99.99,,,0.00,,2013-02-19 13:02:00,
2013-02-19 06:11:00,26.0,13.0,-100.00,SE,130,10.0,11.0,58,-99.99,,,0.00,,2013-02-19 13:11:00,
2013-02-19 06:22:00,26.0,13.0,-100.00,SE,130,10.0,11.0,58,-99.99,,,0.00,,2013-02-19 13:22:00,
2013-02-19 06:52:00,27.0,13.0,-100.00,South,180,16.0,17.0,55,-99.99,,,0.00,,2013-02-19 13:52:00,
2013-02-19 07:01:00,27.0,13.0,-100.00,South,180,16.0,17.0,55,-99.99,,,0.00,,2013-02-19 14:01:00,
2013-02-19 07:52:00,27.0,13.0,-100.00,SSE,155,16.0,18.0,53,-99.99,,,0.00,,2013-02-19 14:52:00,
2013-02-19 08:01:00,27.0,13.0,-100.00,SSE,155,16.0,18.0,53,-99.99,,,0.00,,2013-02-19 15:01:00,
2013-02-19 08:52:00,25.0,13.0,-100.00,SE,125,8.0,9.0,59,-99.99,,,0.00,,2013-02-19 15:52:00,
2013-02-19 09:01:00,25.0,13.0,-100.00,SE,125,8.0,9.0,59,-99.99,,,0.00,,2013-02-19 16:01:00,
2013-02-19 09:52:00,28.0,15.0,-100.00,SE,125,8.0,9.0,57,-99.99,,,0.00,,2013-02-19 16:52:00,
2013-02-19 10:01:00,28.0,15.0,-100.00,SE,125,8.0,9.0,57,-99.99,,,0.00,,2013-02-19 17:01:00,
2013-02-19 10:21:00,28.0,15.0,-100.00,SE,125,8.0,9.0,57,-99.99,,,0.00,,2013-02-19 17:21:00,
2013-02-19 10:52:00,28.0,14.0,-100.00,NW,325,6.0,7.0,56,-99.99,,,0.00,,2013-02-19 17:52:00,
2013-02-19 11:01:00,28.0,14.0,-100.00,NW,325,6.0,7.0,56,-99.99,,,0.00,,2013-02-19 18:01:00,
2013-02-19 11:11:00,28.0,14.0,-100.00,NW,325,6.0,7.0,56,-99.99,,,0.00,,2013-02-19 18:11:00,
2013-02-19 11:21:00,28.0,14.0,-100.00,NW,325,6.0,7.0,56,-99.99,,,0.00,,2013-02-19 18:21:00,
2013-02-19 11:52:00,24.0,15.0,-100.00,NW,325,8.0,9.0,70,-99.99,,,0.00,,2013-02-19 18:52:00,
2013-02-19 12:01:00,24.0,15.0,-100.00,NW,325,8.0,9.0,70,-99.99,,,0.00,,2013-02-19 19:01:00,
2013-02-19 12:11:00,24.0,15.0,-100.00,NW,325,8.0,9.0,70,-99.99,,,0.00,,2013-02-19 19:11:00,
2013-02-19 12:21:00,24.0,15.0,-100.00,NW,325,8.0,9.0,70,-99.99,,,0.00,,2013-02-19 19:21:00,
2013-02-19 12:52:00,28.0,17.0,-100.00,North,0,3.0,4.0,63,-99.99,,,0.00,,2013-02-19 19:52:00,
2013-02-19 13:01:00,28.0,17.0,-100.00,North,0,3.0,4.0,63,-99.99,,,0.00,,2013-02-19 20:01:00,
2013-02-19 13:11:00,28.0,17.0,-100.00,North,0,3.0,4.0,63,-99.99,,,0.00,,2013-02-19 20:11:00,
2013-02-19 13:21:00,28.0,17.0,-100.00,North,0,3.0,4.0,63,-99.99,,,0.00,,2013-02-19 20:21:00,
2013-02-19 13:52:00,26.0,16.0,-100.00,NNW,340,6.0,7.0,66,-99.99,,,0.00,,2013-02-19 20:52:00,
2013-02-19 14:01:00,26.0,16.0,-100.00,NNW,340,6.0,7.0,66,-99.99,,,0.00,,2013-02-19 21:01:00,
2013-02-19 14:11:00,26.0,16.0,-100.00,NNW,340,6.0,7.0,66,-99.99,,,0.00,,2013-02-19 21:11:00,
2013-02-19 14:21:00,26.0,16.0,-100.00,NNW,340,6.0,7.0,66,-99.99,,,0.00,,2013-02-19 21:21:00,
2013-02-19 14:52:00,25.0,17.0,-100.00,North,355,8.0,8.0,70,-99.99,,,0.00,,2013-02-19 21:52:00,
2013-02-19 15:02:00,25.0,17.0,-100.00,North,355,8.0,8.0,70,-99.99,,,0.00,,2013-02-19 22:02:00,
2013-02-19 15:11:00,25.0,17.0,-100.00,North,355,8.0,8.0,70,-99.99,,,0.00,,2013-02-19 22:11:00,
2013-02-19 15:21:00,25.0,17.0,-100.00,North,355,8.0,8.0,70,-99.99,,,0.00,,2013-02-19 22:21:00,
2013-02-19 15:52:00,26.0,18.0,-100.00,NNW,340,8.0,9.0,71,-99.99,,,0.00,,2013-02-19 22:52:00,
2013-02-19 16:01:00,26.0,18.0,-100.00,NNW,340,8.0,9.0,71,-99.99,,,0.00,,2013-02-19 23:01:00,
2013-02-19 16:11:00,26.0,18.0,-100.00,NNW,340,8.0,9.0,71,-99.99,,,0.00,,2013-02-19 23:11:00,
2013-02-19 16:21:00,26.0,18.0,-100.00,NNW,340,8.0,9.0,71,-99.99,,,0.00,,2013-02-19 23:21:00,
2013-02-19 16:52:00,27.0,18.0,-100.00,NNW,335,8.0,9.0,69,-99.99,,,0.00,,2013-02-19 23:52:00,
2013-02-19 17:01:00,27.0,18.0,-100.00,NNW,335,8.0,9.0,69,-99.99,,,0.00,,2013-02-20 00:01:00,
2013-02-19 17:11:00,27.0,18.0,-100.00,NNW,335,8.0,9.0,69,-99.99,,,0.00,,2013-02-20 00:11:00,
2013-02-19 17:21:00,27.0,18.0,-100.00,NNW,335,8.0,9.0,69,-99.99,,,0.00,,2013-02-20 00:21:00,
2013-02-19 17:52:00,21.0,15.0,-100.00,NW,325,9.0,10.0,76,-99.99,,,0.00,,2013-02-20 00:52:00,
2013-02-19 18:02:00,21.0,15.0,-100.00,NW,325,9.0,10.0,76,-99.99,,,0.00,,2013-02-20 01:02:00,
2013-02-19 18:52:00,16.0,11.0,-100.00,NW,315,2.0,3.0,82,-99.99,,,0.00,,2013-02-20 01:52:00,
2013-02-19 19:01:00,16.0,11.0,-100.00,NW,315,2.0,3.0,82,-99.99,,,0.00,,2013-02-20 02:01:00,
2013-02-19 19:52:00,15.0,11.0,-100.00,South,175,1.0,2.0,84,-99.99,,,0.00,,2013-02-20 02:52:00,
2013-02-19 20:01:00,15.0,11.0,-100.00,South,175,1.0,2.0,84,-99.99,,,0.00,,2013-02-20 03:01:00,
2013-02-19 20:52:00,17.0,13.0,-100.00,NW,305,4.0,6.0,85,-99.99,,,0.00,,2013-02-20 03:52:00,
2013-02-19 21:01:00,17.0,13.0,-100.00,NW,305,4.0,6.0,85,-99.99,,,0.00,,2013-02-20 04:01:00,
2013-02-19 21:11:00,17.0,13.0,-100.00,NW,305,4.0,6.0,85,-99.99,,,0.00,,2013-02-20 04:11:00,
2013-02-19 21:21:00,17.0,13.0,-100.00,NW,305,4.0,6.0,85,-99.99,,,0.00,,2013-02-20 04:21:00,
2013-02-19 21:52:00,14.0,11.0,-100.00,South,175,0.0,2.0,87,-99.99,,,0.00,,2013-02-20 04:52:00,
2013-02-19 22:02:00,14.0,11.0,-100.00,South,175,0.0,2.0,87,-99.99,,,0.00,,2013-02-20 05:02:00,
2013-02-19 22:12:00,14.0,11.0,-100.00,South,175,0.0,2.0,87,-99.99,,,0.00,,2013-02-20 05:12:00,
2013-02-19 22:22:00,14.0,11.0,-100.00,South,175,0.0,2.0,87,-99.99,,,0.00,,2013-02-20 05:22:00,
2013-02-19 22:52:00,16.0,13.0,-100.00,NW,315,4.0,5.0,88,-99.99,,,0.00,,2013-02-20 05:52:00,
2013-02-19 23:01:00,16.0,13.0,-100.00,NW,315,4.0,5.0,88,-99.99,,,0.00,,2013-02-20 06:01:00,
2013-02-19 23:11:00,16.0,13.0,-100.00,NW,315,4.0,5.0,88,-99.99,,,0.00,,2013-02-20 06:11:00,
2013-02-19 23:21:00,16.0,13.0,-100.00,NW,315,4.0,5.0,88,-99.99,,,0.00,,2013-02-20 06:21:00,
2013-02-19 23:52:00,18.0,15.0,-100.00,North,-999,0.0,0.0,88,-99.99,,,0.00,,2013-02-20 06:52:00,